Time;durP1;ratioP1;P1;durP2;ratioP2;P2;SDS_P1;SDS_P2;PMS_P1;PMS_P2;Temp;Humidity;BMP_temperature;BMP_pressure;BME280_temperature;BME280_humidity;BME280_pressure;Samples;Min_cycle;Max_cycle;Signal;HPM_P1;HPM_P2
2021/09/04 00:00:35;;;;;;;49.00;34.22;;;16.70;88.50;;;;;;5008351;28;20390;-75
2021/09/04 00:03:01;;;;;;;52.70;35.78;;;16.70;88.50;;;;;;5017235;28;20026;-76
2021/09/04 00:05:28;;;;;;;52.38;36.03;;;16.60;88.60;;;;;;5017046;28;20119;-74
2021/09/04 00:07:54;;;;;;;50.85;34.35;;;16.60;88.60;;;;;;5005581;28;20041;-75
2021/09/04 00:10:20;;;;;;;52.33;35.35;;;16.60;88.70;;;;;;5013713;28;20025;-76
2021/09/04 00:12:45;;;;;;;50.17;34.97;;;16.50;88.70;;;;;;5000851;28;20045;-76
2021/09/04 00:15:12;;;;;;;57.28;37.17;;;16.50;88.80;;;;;;5000540;28;20044;-74
2021/09/04 00:17:39;;;;;;;53.65;35.72;;;16.50;88.90;;;;;;5002150;28;20157;-74
2021/09/04 00:20:06;;;;;;;50.47;34.35;;;16.50;89.00;;;;;;5002329;28;20057;-74
2021/09/04 00:22:32;;;;;;;48.50;34.38;;;16.40;89.20;;;;;;5014890;28;20041;-73
2021/09/04 00:24:57;;;;;;;52.15;35.65;;;16.40;89.20;;;;;;5019963;28;20102;-74
2021/09/04 00:27:23;;;;;;;50.03;33.50;;;16.40;89.10;;;;;;5000731;28;20129;-74
2021/09/04 00:29:49;;;;;;;46.88;33.60;;;16.40;89.20;;;;;;5002129;28;20093;-74
2021/09/04 00:32:14;;;;;;;55.40;35.85;;;16.40;89.10;;;;;;4999755;28;20026;-74
2021/09/04 00:34:40;;;;;;;55.72;36.47;;;16.40;89.20;;;;;;5006200;28;20080;-74
2021/09/04 00:37:06;;;;;;;53.97;37.03;;;16.30;89.20;;;;;;5010234;28;20041;-76
2021/09/04 00:39:32;;;;;;;51.45;35.45;;;16.30;89.20;;;;;;4993851;28;20060;-76
2021/09/04 00:41:57;;;;;;;52.17;36.35;;;16.30;89.20;;;;;;4998632;28;20482;-74
2021/09/04 00:44:23;;;;;;;52.08;35.08;;;16.30;89.30;;;;;;5006577;28;20034;-76
2021/09/04 00:46:49;;;;;;;53.42;35.72;;;16.30;89.30;;;;;;5000580;28;20121;-74
2021/09/04 00:49:16;;;;;;;57.95;36.75;;;16.20;89.40;;;;;;5008499;28;20034;-74
2021/09/04 00:51:42;;;;;;;56.03;36.10;;;16.20;89.40;;;;;;4999405;28;20037;-76
2021/09/04 00:54:08;;;;;;;50.97;36.45;;;16.10;89.50;;;;;;5000525;28;20057;-74
2021/09/04 00:56:37;;;;;;;52.30;35.90;;;16.10;89.50;;;;;;5005074;28;20115;-74
2021/09/04 00:59:06;;;;;;;54.65;35.38;;;16.10;89.50;;;;;;5005552;28;20512;-76
2021/09/04 01:01:32;;;;;;;52.67;34.78;;;16.10;89.50;;;;;;4996669;28;20482;-77
2021/09/04 01:03:58;;;;;;;59.55;37.60;;;16.10;89.60;;;;;;4998869;28;20065;-74
2021/09/04 01:06:24;;;;;;;55.08;35.72;;;16.10;89.60;;;;;;5016712;28;20060;-77
2021/09/04 01:08:50;;;;;;;53.25;35.25;;;16.10;89.60;;;;;;5004113;28;20121;-74
2021/09/04 01:11:16;;;;;;;55.60;35.67;;;16.00;89.70;;;;;;4996505;28;20034;-74
2021/09/04 01:13:42;;;;;;;55.38;36.00;;;16.00;89.80;;;;;;4998288;28;20030;-74
2021/09/04 01:16:09;;;;;;;55.03;35.45;;;16.10;89.80;;;;;;5000249;28;20036;-76
2021/09/04 01:18:35;;;;;;;56.03;35.17;;;16.00;89.80;;;;;;5013242;28;20485;-74
2021/09/04 01:21:05;;;;;;;55.40;35.65;;;16.10;89.80;;;;;;5002103;28;20047;-74
2021/09/04 01:23:31;;;;;;;59.58;36.92;;;16.00;89.90;;;;;;4997780;28;20733;-75
2021/09/04 01:26:05;;;;;;;55.05;35.55;;;16.00;89.80;;;;;;4997854;28;20050;-76
2021/09/04 01:28:31;;;;;;;51.07;33.87;;;16.00;89.90;;;;;;4997949;28;20069;-76
2021/09/04 01:30:57;;;;;;;57.25;35.05;;;15.90;89.90;;;;;;4999548;28;20152;-73
2021/09/04 01:33:23;;;;;;;54.20;35.40;;;16.00;89.90;;;;;;5009146;28;20461;-73
2021/09/04 01:35:48;;;;;;;54.63;34.47;;;15.90;89.80;;;;;;5013178;28;20038;-73
2021/09/04 01:38:14;;;;;;;55.25;35.45;;;15.90;89.70;;;;;;5001417;28;20041;-73
2021/09/04 01:40:40;;;;;;;52.22;34.47;;;15.90;89.70;;;;;;4998374;28;20117;-74
2021/09/04 01:43:06;;;;;;;57.63;36.25;;;15.90;89.70;;;;;;5010601;28;20034;-74
2021/09/04 01:45:31;;;;;;;54.17;34.90;;;15.80;89.70;;;;;;5010683;28;20030;-74
2021/09/04 01:47:57;;;;;;;50.13;34.10;;;15.80;89.80;;;;;;5000351;28;20107;-74
2021/09/04 01:50:23;;;;;;;52.47;35.38;;;15.80;89.80;;;;;;5009218;28;20051;-75
2021/09/04 01:52:49;;;;;;;52.47;33.90;;;15.80;89.80;;;;;;5002712;28;20034;-74
2021/09/04 01:55:18;;;;;;;54.22;34.97;;;15.70;89.90;;;;;;5007506;28;20038;-73
2021/09/04 01:57:44;;;;;;;56.42;36.35;;;15.60;89.90;;;;;;5009527;28;20530;-73
2021/09/04 02:00:12;;;;;;;54.42;36.50;;;15.70;89.90;;;;;;5003816;28;20368;-78
2021/09/04 02:02:38;;;;;;;57.95;35.22;;;15.70;90.00;;;;;;5018467;28;20053;-74
2021/09/04 02:05:05;;;;;;;54.75;34.85;;;15.60;90.00;;;;;;5014814;28;20456;-74
2021/09/04 02:07:31;;;;;;;63.40;37.78;;;15.60;90.10;;;;;;5033959;28;20168;-73
2021/09/04 02:09:56;;;;;;;53.13;34.30;;;15.60;90.10;;;;;;5032073;28;20076;-74
2021/09/04 02:12:22;;;;;;;52.75;34.35;;;15.60;90.10;;;;;;5035377;28;20036;-75
2021/09/04 02:14:48;;;;;;;51.70;34.17;;;15.60;90.10;;;;;;5001397;28;20492;-76
2021/09/04 02:17:14;;;;;;;60.05;37.35;;;15.60;90.00;;;;;;5006270;28;20109;-73
2021/09/04 02:19:39;;;;;;;55.80;36.58;;;15.50;90.20;;;;;;5012306;28;20046;-73
2021/09/04 02:22:05;;;;;;;57.80;36.63;;;15.50;90.30;;;;;;5017059;28;20128;-73
2021/09/04 02:24:31;;;;;;;52.30;35.35;;;15.50;90.40;;;;;;4996865;28;20092;-78
2021/09/04 02:26:58;;;;;;;61.05;38.40;;;15.50;90.50;;;;;;4999132;28;20677;-73
2021/09/04 02:29:23;;;;;;;57.33;36.80;;;15.40;90.50;;;;;;5008419;28;20049;-73
2021/09/04 02:31:49;;;;;;;61.72;37.72;;;15.40;90.70;;;;;;5003553;28;20034;-74
2021/09/04 02:34:15;;;;;;;58.22;36.90;;;15.40;90.70;;;;;;5002879;28;20045;-73
2021/09/04 02:36:40;;;;;;;59.67;36.88;;;15.40;90.60;;;;;;5005692;28;20485;-74
2021/09/04 02:39:06;;;;;;;64.75;38.78;;;15.30;90.60;;;;;;5001421;28;20042;-75
2021/09/04 02:41:32;;;;;;;58.63;37.42;;;15.30;90.80;;;;;;5003843;28;20025;-73
2021/09/04 02:43:58;;;;;;;57.80;38.28;;;15.30;90.90;;;;;;5000007;28;20485;-78
2021/09/04 02:46:23;;;;;;;55.90;35.70;;;15.20;90.90;;;;;;5004446;28;20064;-74
2021/09/04 02:48:49;;;;;;;55.53;35.83;;;15.20;90.90;;;;;;5005297;28;20034;-74
2021/09/04 02:51:15;;;;;;;55.08;35.92;;;15.20;90.80;;;;;;4998322;28;20050;-75
2021/09/04 02:53:41;;;;;;;64.45;36.85;;;15.20;90.80;;;;;;5013860;28;20065;-74
2021/09/04 02:56:06;;;;;;;57.40;37.33;;;15.20;90.80;;;;;;5011388;28;20370;-74
2021/09/04 02:58:32;;;;;;;58.70;38.63;;;15.20;90.90;;;;;;5001281;28;20485;-74
2021/09/04 03:00:59;;;;;;;57.25;36.58;;;15.20;90.90;;;;;;5007966;28;20033;-74
2021/09/04 03:03:25;;;;;;;54.65;36.00;;;15.20;90.90;;;;;;5009642;28;20133;-74
2021/09/04 03:05:51;;;;;;;56.17;36.00;;;15.10;91.00;;;;;;5000496;28;20407;-77
2021/09/04 03:08:17;;;;;;;58.08;37.92;;;15.10;90.80;;;;;;5019096;28;20037;-75
2021/09/04 03:10:42;;;;;;;59.45;38.05;;;15.10;90.90;;;;;;5011646;28;20041;-74
2021/09/04 03:13:08;;;;;;;57.58;36.65;;;15.10;91.00;;;;;;5018240;28;20038;-79
2021/09/04 03:15:34;;;;;;;56.30;35.60;;;15.10;91.10;;;;;;5020846;28;20588;-74
2021/09/04 03:17:59;;;;;;;58.13;37.53;;;15.10;91.20;;;;;;5019846;28;20041;-76
2021/09/04 03:20:25;;;;;;;59.53;38.28;;;15.00;91.10;;;;;;5017304;28;20132;-74
2021/09/04 03:22:51;;;;;;;57.95;37.08;;;15.10;91.00;;;;;;5023730;28;20556;-74
2021/09/04 03:25:16;;;;;;;59.35;38.42;;;15.00;91.00;;;;;;5019728;28;20480;-74
2021/09/04 03:27:42;;;;;;;62.85;38.65;;;15.00;91.10;;;;;;5022155;28;20037;-78
2021/09/04 03:30:09;;;;;;;62.10;39.28;;;15.00;91.10;;;;;;5019826;28;20040;-75
2021/09/04 03:32:35;;;;;;;68.35;39.00;;;15.00;91.10;;;;;;5019886;28;20029;-74
2021/09/04 03:35:01;;;;;;;64.10;39.63;;;14.90;91.30;;;;;;5019737;28;20036;-77
2021/09/04 03:37:26;;;;;;;63.45;39.22;;;14.90;91.40;;;;;;5020840;28;20476;-74
2021/09/04 03:39:52;;;;;;;63.00;39.53;;;14.90;91.30;;;;;;5020628;28;20057;-74
2021/09/04 03:42:17;;;;;;;63.22;41.15;;;14.80;91.40;;;;;;5018274;28;20038;-74
2021/09/04 03:44:43;;;;;;;63.70;39.55;;;14.80;91.50;;;;;;5021864;28;20026;-74
2021/09/04 03:47:09;;;;;;;60.90;38.83;;;14.80;91.50;;;;;;5017877;28;21307;-78
2021/09/04 03:49:35;;;;;;;59.00;36.65;;;14.80;91.50;;;;;;5026352;28;20030;-74
2021/09/04 03:52:00;;;;;;;61.92;39.53;;;14.90;91.40;;;;;;5034428;28;20066;-74
2021/09/04 03:54:26;;;;;;;65.45;39.28;;;14.80;91.40;;;;;;5025343;28;20052;-74
2021/09/04 03:56:53;;;;;;;62.22;37.97;;;14.80;91.40;;;;;;5024571;28;20477;-79
2021/09/04 03:59:20;;;;;;;63.88;39.00;;;14.80;91.40;;;;;;5015093;28;20480;-74
2021/09/04 04:01:46;;;;;;;67.00;41.88;;;14.80;91.40;;;;;;5020780;28;20041;-74
2021/09/04 04:04:11;;;;;;;61.63;38.38;;;14.70;91.50;;;;;;5018023;28;20495;-76
2021/09/04 04:06:37;;;;;;;64.65;40.17;;;14.70;91.50;;;;;;5019612;28;20069;-76
2021/09/04 04:09:03;;;;;;;66.20;39.72;;;14.70;91.50;;;;;;5019346;28;20397;-75
2021/09/04 04:11:28;;;;;;;66.70;39.60;;;14.70;91.50;;;;;;5019253;28;20045;-74
2021/09/04 04:13:54;;;;;;;67.97;39.90;;;14.70;91.50;;;;;;5018839;28;20048;-74
2021/09/04 04:16:20;;;;;;;58.67;38.95;;;14.60;91.50;;;;;;5017668;28;20370;-77
2021/09/04 04:18:45;;;;;;;62.25;39.97;;;14.60;91.60;;;;;;5018926;28;20084;-75
2021/09/04 04:21:11;;;;;;;63.83;38.85;;;14.60;91.50;;;;;;5019452;28;20078;-74
2021/09/04 04:23:37;;;;;;;60.60;38.30;;;14.60;91.50;;;;;;5019534;28;20041;-74
2021/09/04 04:26:02;;;;;;;64.90;40.55;;;14.60;91.50;;;;;;5017658;28;20103;-74
2021/09/04 04:28:28;;;;;;;62.25;39.20;;;14.60;91.50;;;;;;5020836;28;20037;-77
2021/09/04 04:30:54;;;;;;;63.95;39.92;;;14.60;91.60;;;;;;5018610;28;20049;-75
2021/09/04 04:33:19;;;;;;;63.17;40.22;;;14.60;91.60;;;;;;5018391;28;20029;-74
2021/09/04 04:35:45;;;;;;;62.70;41.38;;;14.60;91.60;;;;;;5022471;28;20030;-74
2021/09/04 04:38:11;;;;;;;62.67;38.05;;;14.60;91.50;;;;;;5018280;28;20053;-75
2021/09/04 04:40:37;;;;;;;69.38;39.42;;;14.50;91.60;;;;;;5016993;28;20479;-74
2021/09/04 04:43:03;;;;;;;64.78;40.88;;;14.50;91.70;;;;;;5017077;28;20041;-78
2021/09/04 04:45:28;;;;;;;63.83;38.38;;;14.50;91.70;;;;;;5018832;28;20034;-73
2021/09/04 04:47:54;;;;;;;63.42;40.30;;;14.40;91.60;;;;;;5016538;28;20073;-74
2021/09/04 04:50:20;;;;;;;67.90;42.15;;;14.40;91.70;;;;;;5020475;28;20730;-73
2021/09/04 04:52:46;;;;;;;67.25;41.28;;;14.50;91.70;;;;;;5016570;28;20049;-73
2021/09/04 04:55:12;;;;;;;71.07;42.13;;;14.40;91.80;;;;;;5019082;28;20179;-74
2021/09/04 04:57:38;;;;;;;62.47;40.30;;;14.30;91.90;;;;;;5018445;28;20124;-73
2021/09/04 05:00:05;;;;;;;71.15;42.58;;;14.40;91.80;;;;;;5021004;28;20057;-74
2021/09/04 05:02:30;;;;;;;71.13;41.50;;;14.40;91.90;;;;;;5016682;28;20107;-74
2021/09/04 05:04:56;;;;;;;72.93;43.47;;;14.30;92.00;;;;;;5018007;28;20755;-73
2021/09/04 05:07:22;;;;;;;73.38;43.45;;;14.40;92.10;;;;;;5018162;28;20045;-73
2021/09/04 05:09:47;;;;;;;74.78;43.17;;;14.40;92.10;;;;;;5016374;28;20489;-74
2021/09/04 05:12:13;;;;;;;69.15;42.50;;;14.40;92.10;;;;;;5027982;28;20042;-75
2021/09/04 05:14:39;;;;;;;74.47;43.60;;;14.40;92.10;;;;;;5020531;28;20180;-74
2021/09/04 05:17:04;;;;;;;72.80;43.67;;;14.40;92.10;;;;;;5016800;28;20033;-74
2021/09/04 05:19:30;;;;;;;78.03;44.28;;;14.40;92.00;;;;;;5019374;28;20126;-73
2021/09/04 05:21:57;;;;;;;69.50;42.15;;;14.50;92.00;;;;;;5003198;28;20033;-74
2021/09/04 05:24:23;;;;;;;68.95;43.97;;;14.40;92.00;;;;;;5020250;28;20044;-75
2021/09/04 05:26:48;;;;;;;67.30;43.38;;;14.40;92.00;;;;;;5013098;28;20050;-74
2021/09/04 05:29:14;;;;;;;78.90;44.75;;;14.40;92.00;;;;;;4997979;28;20030;-75
2021/09/04 05:31:40;;;;;;;68.30;43.40;;;14.50;92.10;;;;;;4999784;28;20038;-74
2021/09/04 05:34:05;;;;;;;70.05;41.72;;;14.50;92.00;;;;;;5008668;28;20042;-75
2021/09/04 05:36:31;;;;;;;70.32;41.75;;;14.50;91.90;;;;;;5015231;28;20129;-73
2021/09/04 05:38:56;;;;;;;70.10;41.85;;;14.40;91.90;;;;;;5009437;28;20502;-73
2021/09/04 05:41:22;;;;;;;67.28;43.28;;;14.50;91.80;;;;;;4999366;28;20032;-73
2021/09/04 05:43:48;;;;;;;69.65;43.13;;;14.50;91.90;;;;;;4999400;28;20042;-74
2021/09/04 05:46:14;;;;;;;64.75;41.83;;;14.50;91.70;;;;;;4999170;28;20034;-73
2021/09/04 05:48:39;;;;;;;64.82;42.25;;;14.60;91.60;;;;;;4997130;28;20057;-75
2021/09/04 05:51:05;;;;;;;67.93;42.35;;;14.60;91.70;;;;;;5006255;28;20049;-74
2021/09/04 05:53:31;;;;;;;68.57;43.45;;;14.60;91.50;;;;;;4998802;28;20049;-73
2021/09/04 05:55:57;;;;;;;66.57;42.13;;;14.60;91.40;;;;;;4999817;28;20504;-75
2021/09/04 05:58:24;;;;;;;67.93;41.13;;;14.60;91.40;;;;;;5016299;28;20057;-73
2021/09/04 06:00:51;;;;;;;69.03;41.53;;;14.60;91.30;;;;;;5021775;28;20026;-74
2021/09/04 06:03:16;;;;;;;69.93;44.10;;;14.70;91.30;;;;;;5022952;28;20428;-74
2021/09/04 06:05:42;;;;;;;68.10;44.33;;;14.70;91.30;;;;;;5008589;28;20030;-74
2021/09/04 06:08:08;;;;;;;71.07;42.15;;;14.70;91.20;;;;;;4998723;28;20049;-74
2021/09/04 06:10:33;;;;;;;68.03;42.65;;;14.70;91.10;;;;;;5000924;28;20046;-73
2021/09/04 06:12:59;;;;;;;61.05;41.38;;;14.70;91.10;;;;;;5016873;28;20040;-73
2021/09/04 06:15:25;;;;;;;71.63;44.03;;;14.80;91.20;;;;;;5014058;28;20512;-75
2021/09/04 06:17:51;;;;;;;65.50;42.78;;;14.90;91.00;;;;;;5019304;28;20128;-74
2021/09/04 06:20:17;;;;;;;65.07;42.85;;;14.90;90.90;;;;;;5015074;28;20077;-75
2021/09/04 06:22:43;;;;;;;58.10;39.60;;;15.10;90.80;;;;;;5020173;28;20037;-74
2021/09/04 06:25:09;;;;;;;65.85;40.20;;;15.20;90.80;;;;;;5019062;28;20500;-74
2021/09/04 06:27:35;;;;;;;59.40;40.20;;;15.40;90.00;;;;;;5018415;28;20034;-74
2021/09/04 06:30:06;;;;;;;60.30;39.85;;;15.40;89.70;;;;;;5017824;28;20077;-74
2021/09/04 06:32:32;;;;;;;62.53;40.80;;;15.50;89.40;;;;;;5017766;28;20041;-74
2021/09/04 06:34:57;;;;;;;58.90;39.72;;;15.50;89.00;;;;;;5019690;28;20702;-77
2021/09/04 06:37:23;;;;;;;64.53;42.47;;;15.30;89.30;;;;;;5023027;28;20140;-70
2021/09/04 06:39:49;;;;;;;66.68;41.40;;;15.30;89.60;;;;;;5019373;28;20041;-70
2021/09/04 06:42:15;;;;;;;63.22;40.80;;;15.30;89.70;;;;;;5012738;28;20033;-72
2021/09/04 06:44:40;;;;;;;64.97;41.05;;;15.40;89.60;;;;;;5014604;28;20041;-71
2021/09/04 06:47:06;;;;;;;64.32;41.70;;;15.30;89.70;;;;;;5016406;28;20377;-71
2021/09/04 06:49:32;;;;;;;65.72;42.25;;;15.30;89.50;;;;;;5018763;28;20061;-70
2021/09/04 06:51:57;;;;;;;68.13;44.80;;;15.50;89.70;;;;;;5018402;28;20067;-70
2021/09/04 06:54:24;;;;;;;65.07;45.05;;;15.50;89.60;;;;;;5014671;28;20115;-75
2021/09/04 06:56:53;;;;;;;86.20;49.67;;;15.40;89.50;;;;;;5019076;28;20115;-72
2021/09/04 06:59:19;;;;;;;75.25;47.80;;;15.50;89.30;;;;;;5018805;28;20033;-71
2021/09/04 07:01:45;;;;;;;75.07;50.60;;;15.40;89.30;;;;;;5018054;28;20723;-71
2021/09/04 07:04:11;;;;;;;78.13;49.10;;;15.50;89.10;;;;;;5020727;28;20500;-72
2021/09/04 07:06:37;;;;;;;74.50;49.78;;;15.60;89.00;;;;;;5018402;28;20038;-72
2021/09/04 07:09:03;;;;;;;80.03;51.63;;;15.70;88.80;;;;;;5019378;28;20560;-72
2021/09/04 07:11:29;;;;;;;83.20;54.38;;;15.70;88.50;;;;;;5018630;28;20041;-71
2021/09/04 07:13:54;;;;;;;82.43;53.05;;;15.60;88.20;;;;;;5015855;28;20070;-71
2021/09/04 07:16:20;;;;;;;86.38;56.10;;;15.50;88.50;;;;;;5014959;28;20045;-72
2021/09/04 07:18:47;;;;;;;87.88;55.78;;;15.50;88.80;;;;;;5019186;28;20044;-70
2021/09/04 07:21:13;;;;;;;86.38;54.72;;;15.30;89.10;;;;;;5020188;28;20087;-71
2021/09/04 07:23:39;;;;;;;89.32;56.35;;;15.30;88.90;;;;;;5022854;28;20477;-73
2021/09/04 07:26:05;;;;;;;94.82;56.85;;;15.20;89.40;;;;;;5002708;28;20052;-71
2021/09/04 07:28:30;;;;;;;88.93;55.60;;;15.20;89.50;;;;;;4999748;28;20046;-71
2021/09/04 07:30:57;;;;;;;89.90;56.47;;;15.40;89.60;;;;;;5023349;28;20033;-71
2021/09/04 07:33:22;;;;;;;91.80;56.17;;;15.50;89.30;;;;;;5020045;28;20037;-73
2021/09/04 07:35:48;;;;;;;92.55;56.25;;;15.60;88.90;;;;;;5005930;28;20030;-72
2021/09/04 07:38:14;;;;;;;92.00;53.58;;;15.50;88.80;;;;;;5013957;28;20034;-71
2021/09/04 07:40:40;;;;;;;92.50;56.50;;;15.30;88.90;;;;;;4997205;28;20915;-72
2021/09/04 07:43:08;;;;;;;88.82;54.83;;;15.30;89.20;;;;;;4998613;28;20034;-71
2021/09/04 07:45:35;;;;;;;85.07;51.75;;;15.40;89.20;;;;;;5014401;28;20030;-74
2021/09/04 07:48:01;;;;;;;88.22;54.25;;;15.60;89.30;;;;;;5008841;28;20490;-71
2021/09/04 07:50:26;;;;;;;83.07;51.65;;;15.60;88.50;;;;;;5001385;28;20080;-71
2021/09/04 07:52:52;;;;;;;87.75;51.92;;;15.60;88.30;;;;;;4999785;28;20461;-71
2021/09/04 07:55:19;;;;;;;80.80;51.45;;;15.60;88.20;;;;;;5016704;28;20385;-71
2021/09/04 07:57:44;;;;;;;85.40;53.88;;;15.40;88.70;;;;;;5004351;28;20552;-70
2021/09/04 08:00:10;;;;;;;88.97;52.95;;;15.50;88.90;;;;;;4998967;28;20038;-71
2021/09/04 08:02:36;;;;;;;90.13;53.50;;;15.60;88.70;;;;;;5019596;28;20058;-73
2021/09/04 08:05:02;;;;;;;91.65;53.25;;;15.60;88.20;;;;;;5017859;28;20717;-75
2021/09/04 08:07:28;;;;;;;84.32;53.15;;;15.70;88.20;;;;;;4998782;28;20025;-73
2021/09/04 08:09:54;;;;;;;81.38;52.22;;;15.50;88.70;;;;;;4998582;28;20346;-70
2021/09/04 08:12:20;;;;;;;79.53;52.58;;;15.70;88.60;;;;;;5016543;28;20026;-74
2021/09/04 08:14:46;;;;;;;84.07;53.60;;;15.60;88.40;;;;;;5014191;28;20029;-75
2021/09/04 08:17:11;;;;;;;80.13;52.25;;;15.60;88.50;;;;;;5015111;28;20036;-71
2021/09/04 08:19:37;;;;;;;86.38;53.50;;;15.60;88.30;;;;;;5006692;28;20115;-71
2021/09/04 08:22:03;;;;;;;83.88;52.33;;;15.80;88.40;;;;;;4996508;28;20612;-71
2021/09/04 08:24:31;;;;;;;81.10;51.20;;;15.90;87.50;;;;;;4999571;28;20060;-73
2021/09/04 08:26:57;;;;;;;81.22;52.28;;;15.80;87.10;;;;;;5006401;28;20041;-74
2021/09/04 08:29:22;;;;;;;89.28;50.50;;;15.60;87.90;;;;;;5009270;28;20045;-71
2021/09/04 08:31:48;;;;;;;91.18;53.83;;;15.30;88.20;;;;;;4997878;28;20113;-74
2021/09/04 08:34:14;;;;;;;87.65;53.83;;;15.50;88.90;;;;;;5012108;28;20063;-71
2021/09/04 08:36:39;;;;;;;86.88;53.50;;;15.70;88.50;;;;;;5000335;28;20534;-72
2021/09/04 08:39:05;;;;;;;87.30;54.00;;;15.80;87.50;;;;;;5009849;28;20056;-71
2021/09/04 08:41:32;;;;;;;86.88;54.45;;;15.80;87.50;;;;;;5017805;28;20524;-72
2021/09/04 08:43:58;;;;;;;86.35;53.05;;;15.80;88.00;;;;;;5012862;28;20047;-71
2021/09/04 08:46:27;;;;;;;89.93;57.20;;;15.90;87.60;;;;;;5028643;28;20037;-71
2021/09/04 08:48:53;;;;;;;89.85;55.20;;;16.00;87.00;;;;;;5018334;28;20038;-72
2021/09/04 08:51:19;;;;;;;94.78;57.78;;;15.80;87.00;;;;;;5013910;28;20038;-70
2021/09/04 08:53:45;;;;;;;97.35;58.47;;;15.60;88.20;;;;;;5028730;28;20108;-70
2021/09/04 08:56:11;;;;;;;93.93;57.15;;;15.70;88.30;;;;;;5013163;28;20102;-71
2021/09/04 08:58:37;;;;;;;96.13;58.13;;;15.70;88.10;;;;;;5005091;28;20365;-71
2021/09/04 09:01:17;;;;;;;92.50;54.72;;;15.70;88.00;;;;;;5014154;28;20041;-73
2021/09/04 09:03:44;;;;;;;97.43;59.30;;;15.60;88.10;;;;;;5007661;28;20034;-71
2021/09/04 09:06:10;;;;;;;95.95;58.10;;;15.70;88.20;;;;;;5005738;28;20440;-70
2021/09/04 09:08:42;;;;;;;99.53;60.42;;;15.60;88.40;;;;;;5018808;28;20030;-71
2021/09/04 09:11:09;;;;;;;94.93;57.67;;;15.70;88.30;;;;;;5000742;28;20080;-71
2021/09/04 09:13:45;;;;;;;89.35;57.83;;;15.90;88.10;;;;;;5005297;28;20029;-71
2021/09/04 09:16:16;;;;;;;96.22;58.17;;;15.90;87.60;;;;;;4998311;28;20084;-71
2021/09/04 09:18:54;;;;;;;101.55;59.83;;;15.90;87.50;;;;;;5008965;28;20049;-71
2021/09/04 09:21:20;;;;;;;95.82;59.15;;;15.90;87.60;;;;;;4999549;28;20042;-71
2021/09/04 09:24:04;;;;;;;104.25;61.58;;;15.90;87.60;;;;;;5005942;28;20455;-72
2021/09/04 09:26:30;;;;;;;101.57;62.43;;;16.10;87.60;;;;;;5013974;28;20048;-71
2021/09/04 09:29:16;;;;;;;103.30;63.53;;;16.20;87.00;;;;;;5028525;28;20281;-71
2021/09/04 09:31:41;;;;;;;107.35;63.85;;;16.20;86.80;;;;;;5020276;28;20222;-71
2021/09/04 09:34:11;;;;;;;107.20;65.18;;;16.40;86.30;;;;;;5013659;28;20127;-73
2021/09/04 09:36:55;;;;;;;108.38;66.38;;;16.40;86.30;;;;;;5018825;28;20045;-71
2021/09/04 09:39:43;;;;;;;105.20;65.80;;;16.40;85.30;;;;;;5018899;28;20100;-72
2021/09/04 09:42:10;;;;;;;101.43;61.45;;;16.60;84.80;;;;;;5023476;28;20141;-74
2021/09/04 09:44:37;;;;;;;106.25;65.78;;;16.10;86.00;;;;;;5024423;28;20130;-71
2021/09/04 09:47:05;;;;;;;105.82;65.35;;;16.10;86.50;;;;;;5017881;28;20076;-73
2021/09/04 09:49:37;;;;;;;96.85;61.63;;;16.20;86.40;;;;;;5022117;28;20034;-74
2021/09/04 09:52:11;;;;;;;97.20;59.28;;;16.60;86.00;;;;;;5000841;28;20058;-71
2021/09/04 09:54:38;;;;;;;;;;;16.50;84.70;;;;;;5015863;28;20461;-71
2021/09/04 09:57:07;;;;;;;90.70;57.40;;;16.60;84.90;;;;;;5018690;28;19984;-72
2021/09/04 09:59:33;;;;;;;85.50;56.08;;;16.80;84.60;;;;;;5019662;28;20052;-76
2021/09/04 10:02:07;;;;;;;84.00;55.28;;;16.90;83.90;;;;;;5006494;28;20085;-74
2021/09/04 10:04:34;;;;;;;83.82;56.10;;;16.90;83.70;;;;;;4999327;28;20049;-71
2021/09/04 10:07:05;;;;;;;86.57;56.65;;;16.80;83.50;;;;;;5009573;28;20045;-70
2021/09/04 10:09:31;;;;;;;96.65;60.95;;;16.70;83.90;;;;;;5000594;28;20498;-71
2021/09/04 10:11:58;;;;;;;94.85;57.40;;;16.60;84.50;;;;;;5008261;28;20120;-74
2021/09/04 10:14:25;;;;;;;93.75;58.95;;;16.70;84.50;;;;;;5003003;28;20038;-74
2021/09/04 10:16:54;;;;;;;94.15;60.33;;;16.60;83.70;;;;;;5013072;28;20435;-72
2021/09/04 10:19:24;;;;;;;101.10;63.30;;;16.60;84.50;;;;;;5004221;28;21247;-72
2021/09/04 10:21:58;;;;;;;93.47;59.33;;;16.70;84.90;;;;;;5009574;28;20040;-72
2021/09/04 10:24:44;;;;;;;100.20;62.73;;;16.80;83.50;;;;;;5018965;28;20042;-72
2021/09/04 10:27:12;;;;;;;105.38;64.15;;;16.90;83.90;;;;;;5017631;28;20570;-72
2021/09/04 10:29:46;;;;;;;100.68;61.88;;;17.00;83.40;;;;;;5018916;28;20153;-74
2021/09/04 10:32:16;;;;;;;95.35;60.17;;;17.20;83.10;;;;;;5020041;28;20404;-73
2021/09/04 10:34:45;;;;;;;89.80;58.00;;;17.30;82.80;;;;;;5019747;28;20034;-72
2021/09/04 10:37:14;;;;;;;85.93;54.28;;;17.60;82.30;;;;;;4995413;28;20041;-70
2021/09/04 10:39:46;;;;;;;78.65;52.58;;;18.10;80.20;;;;;;5018404;28;20049;-75
2021/09/04 10:42:16;;;;;;;81.22;50.63;;;18.20;79.20;;;;;;5013409;28;20393;-72
2021/09/04 10:44:44;;;;;;;77.00;49.90;;;18.60;77.90;;;;;;5020266;28;20492;-73
2021/09/04 10:47:11;;;;;;;74.38;49.63;;;19.00;76.50;;;;;;5018380;28;20052;-73
2021/09/04 10:49:41;;;;;;;75.10;49.63;;;19.20;75.90;;;;;;5017432;28;20505;-73
2021/09/04 10:52:07;;;;;;;71.28;49.20;;;19.50;73.80;;;;;;5020971;28;20041;-72
2021/09/04 10:54:57;;;;;;;75.45;50.17;;;19.60;74.50;;;;;;5012089;28;20037;-72
2021/09/04 10:57:23;;;;;;;70.93;49.70;;;19.90;73.20;;;;;;5019652;28;20091;-72
2021/09/04 11:00:15;;;;;;;71.30;48.03;;;20.20;71.90;;;;;;5019981;28;20735;-72
2021/09/04 11:02:43;;;;;;;74.63;49.80;;;20.50;70.50;;;;;;5015382;28;20030;-72
2021/09/04 11:05:27;;;;;;;70.93;49.30;;;20.70;71.20;;;;;;5000459;28;20117;-72
2021/09/04 11:08:07;;;;;;;70.68;46.30;;;20.60;70.80;;;;;;5000671;28;20034;-71
2021/09/04 11:10:34;;;;;;;72.65;49.15;;;20.90;69.80;;;;;;5007442;28;20041;-72
2021/09/04 11:13:11;;;;;;;72.32;49.92;;;21.10;68.20;;;;;;5003410;28;20034;-71
2021/09/04 11:15:40;;;;;;;77.82;51.50;;;20.20;70.00;;;;;;4996236;28;20528;-71
2021/09/04 11:18:07;;;;;;;82.70;55.40;;;19.30;73.20;;;;;;4997190;28;20044;-71
2021/09/04 11:20:33;;;;;;;77.80;51.97;;;19.10;74.70;;;;;;4995038;28;20042;-72
2021/09/04 11:22:59;;;;;;;81.85;54.53;;;18.90;75.30;;;;;;4998493;28;20516;-72
2021/09/04 11:25:24;;;;;;;86.60;56.53;;;18.60;76.00;;;;;;4997730;28;20092;-72
2021/09/04 11:27:51;;;;;;;85.75;56.92;;;18.60;77.20;;;;;;5005317;28;20041;-73
2021/09/04 11:30:22;;;;;;;81.70;54.50;;;18.70;76.70;;;;;;5009043;28;20125;-70
2021/09/04 11:32:48;;;;;;;83.28;55.72;;;19.10;75.90;;;;;;4999431;28;20085;-75
2021/09/04 11:35:14;;;;;;;86.90;57.20;;;19.30;75.60;;;;;;5004238;28;20038;-75
2021/09/04 11:37:44;;;;;;;82.22;53.88;;;19.60;75.10;;;;;;5003504;28;20040;-74
2021/09/04 11:40:23;;;;;;;77.82;53.38;;;19.60;74.20;;;;;;4998717;28;20045;-74
2021/09/04 11:42:50;;;;;;;85.40;56.53;;;19.50;73.60;;;;;;5009206;28;20033;-77
2021/09/04 11:45:21;;;;;;;84.47;55.90;;;19.10;75.00;;;;;;4999588;28;20386;-73
2021/09/04 11:47:49;;;;;;;87.65;56.90;;;19.20;76.10;;;;;;5006651;28;20049;-74
2021/09/04 11:50:22;;;;;;;81.60;56.78;;;19.60;74.90;;;;;;4998771;28;20125;-73
2021/09/04 11:52:49;;;;;;;88.15;57.65;;;19.40;75.00;;;;;;5000123;28;20475;-75
2021/09/04 11:55:17;;;;;;;82.72;56.13;;;19.50;74.30;;;;;;5000658;28;20496;-74
2021/09/04 11:57:52;;;;;;;81.47;56.13;;;19.40;75.00;;;;;;5016730;28;20393;-72
2021/09/04 12:00:21;;;;;;;83.75;56.95;;;19.40;75.20;;;;;;5014624;28;20041;-73
2021/09/04 12:02:54;;;;;;;84.43;56.20;;;19.70;74.50;;;;;;5015427;28;20042;-75
2021/09/04 12:05:22;;;;;;;82.97;53.60;;;19.70;72.90;;;;;;5016249;28;20029;-76
2021/09/04 12:07:48;;;;;;;80.30;54.55;;;19.90;73.60;;;;;;5018677;28;20076;-74
2021/09/04 12:10:17;;;;;;;83.72;57.60;;;20.20;72.70;;;;;;5018516;28;20050;-71
2021/09/04 12:12:44;;;;;;;80.03;56.17;;;20.80;70.90;;;;;;5015158;28;20061;-74
2021/09/04 12:15:11;;;;;;;78.68;53.80;;;21.40;70.40;;;;;;5016163;28;20051;-73
2021/09/04 12:17:55;;;;;;;78.88;54.63;;;21.50;67.60;;;;;;5015121;28;20039;-72
2021/09/04 12:20:34;;;;;;;79.85;54.53;;;20.90;70.00;;;;;;5019021;28;20060;-75
2021/09/04 12:23:28;;;;;;;79.03;55.45;;;20.30;71.70;;;;;;5018755;28;20176;-74
2021/09/04 12:26:04;;;;;;;76.18;54.60;;;20.60;71.10;;;;;;4999168;28;20517;-75